sensor_id;sensor_type;location;lat;lon;timestamp;temperature;humidity
25933;DHT22;13731;51.166;4.474;2022-08-16T00:00:11;19.80;1.00
25933;DHT22;13731;51.166;4.474;2022-08-16T00:02:37;19.70;1.00
25933;DHT22;13731;51.166;4.474;2022-08-16T00:05:05;19.70;1.00
25933;DHT22;13731;51.166;4.474;2022-08-16T00:07:31;19.70;1.00
25933;DHT22;13731;51.166;4.474;2022-08-16T00:09:58;19.70;1.00
25933;DHT22;13731;51.166;4.474;2022-08-16T00:12:25;19.70;1.00
25933;DHT22;13731;51.166;4.474;2022-08-16T00:14:51;19.70;1.00
25933;DHT22;13731;51.166;4.474;2022-08-16T00:17:17;19.70;1.00
25933;DHT22;13731;51.166;4.474;2022-08-16T00:19:43;19.70;1.00
25933;DHT22;13731;51.166;4.474;2022-08-16T00:22:09;19.70;1.00
25933;DHT22;13731;51.166;4.474;2022-08-16T00:24:35;19.70;1.00
25933;DHT22;13731;51.166;4.474;2022-08-16T00:27:02;19.70;1.00
25933;DHT22;13731;51.166;4.474;2022-08-16T00:29:29;19.80;1.00
25933;DHT22;13731;51.166;4.474;2022-08-16T00:31:54;19.90;1.00
25933;DHT22;13731;51.166;4.474;2022-08-16T00:34:21;20.00;99.90
25933;DHT22;13731;51.166;4.474;2022-08-16T00:36:47;20.00;99.90
25933;DHT22;13731;51.166;4.474;2022-08-16T00:39:15;20.00;99.90
25933;DHT22;13731;51.166;4.474;2022-08-16T00:41:43;20.00;99.90
25933;DHT22;13731;51.166;4.474;2022-08-16T00:44:10;20.10;99.90
25933;DHT22;13731;51.166;4.474;2022-08-16T00:47:03;20.00;99.90
25933;DHT22;13731;51.166;4.474;2022-08-16T00:49:34;20.00;99.90
25933;DHT22;13731;51.166;4.474;2022-08-16T00:52:00;20.00;99.90
25933;DHT22;13731;51.166;4.474;2022-08-16T00:54:29;20.00;99.90
25933;DHT22;13731;51.166;4.474;2022-08-16T00:56:57;20.00;99.90
25933;DHT22;13731;51.166;4.474;2022-08-16T00:59:25;20.00;99.90
25933;DHT22;13731;51.166;4.474;2022-08-16T01:01:52;19.90;1.00
25933;DHT22;13731;51.166;4.474;2022-08-16T01:04:22;19.90;1.00
25933;DHT22;13731;51.166;4.474;2022-08-16T01:06:49;19.80;1.00
25933;DHT22;13731;51.166;4.474;2022-08-16T01:09:16;19.90;99.90
25933;DHT22;13731;51.166;4.474;2022-08-16T01:11:44;19.90;99.90
25933;DHT22;13731;51.166;4.474;2022-08-16T01:14:24;19.80;99.90
25933;DHT22;13731;51.166;4.474;2022-08-16T01:16:52;19.80;99.90
25933;DHT22;13731;51.166;4.474;2022-08-16T01:19:38;19.60;1.00
25933;DHT22;13731;51.166;4.474;2022-08-16T01:22:11;19.60;1.00
25933;DHT22;13731;51.166;4.474;2022-08-16T01:25:22;19.50;1.00
25933;DHT22;13731;51.166;4.474;2022-08-16T01:27:50;19.40;1.00
25933;DHT22;13731;51.166;4.474;2022-08-16T01:30:24;19.30;1.00
25933;DHT22;13731;51.166;4.474;2022-08-16T01:32:53;19.30;1.00
25933;DHT22;13731;51.166;4.474;2022-08-16T01:35:23;19.10;1.00
25933;DHT22;13731;51.166;4.474;2022-08-16T01:37:53;19.00;1.00
25933;DHT22;13731;51.166;4.474;2022-08-16T01:40:25;19.00;1.00
25933;DHT22;13731;51.166;4.474;2022-08-16T01:42:51;18.90;1.00
25933;DHT22;13731;51.166;4.474;2022-08-16T01:45:18;18.90;1.00
25933;DHT22;13731;51.166;4.474;2022-08-16T01:47:46;18.90;1.00
25933;DHT22;13731;51.166;4.474;2022-08-16T01:50:12;18.80;1.00
25933;DHT22;13731;51.166;4.474;2022-08-16T01:52:39;18.80;1.00
25933;DHT22;13731;51.166;4.474;2022-08-16T01:55:24;18.70;1.00
25933;DHT22;13731;51.166;4.474;2022-08-16T01:57:53;18.80;1.00
25933;DHT22;13731;51.166;4.474;2022-08-16T02:00:19;18.70;1.00
25933;DHT22;13731;51.166;4.474;2022-08-16T02:02:45;18.60;1.00
25933;DHT22;13731;51.166;4.474;2022-08-16T02:05:11;18.50;3.50
25933;DHT22;13731;51.166;4.474;2022-08-16T02:07:39;18.40;15.70
25933;DHT22;13731;51.166;4.474;2022-08-16T02:10:06;18.40;21.50
25933;DHT22;13731;51.166;4.474;2022-08-16T02:12:41;18.30;29.40
25933;DHT22;13731;51.166;4.474;2022-08-16T02:15:08;18.30;36.50
25933;DHT22;13731;51.166;4.474;2022-08-16T02:17:34;18.20;46.50
25933;DHT22;13731;51.166;4.474;2022-08-16T02:20:00;18.20;51.30
25933;DHT22;13731;51.166;4.474;2022-08-16T02:22:27;18.20;51.10
25933;DHT22;13731;51.166;4.474;2022-08-16T02:24:53;18.20;50.80
25933;DHT22;13731;51.166;4.474;2022-08-16T02:27:19;18.20;52.10
25933;DHT22;13731;51.166;4.474;2022-08-16T02:29:45;18.10;51.60
25933;DHT22;13731;51.166;4.474;2022-08-16T02:32:14;18.10;52.40
25933;DHT22;13731;51.166;4.474;2022-08-16T02:34:40;18.20;53.90
25933;DHT22;13731;51.166;4.474;2022-08-16T02:37:07;18.20;52.50
25933;DHT22;13731;51.166;4.474;2022-08-16T02:39:34;18.30;49.20
25933;DHT22;13731;51.166;4.474;2022-08-16T02:42:00;18.30;46.50
25933;DHT22;13731;51.166;4.474;2022-08-16T02:44:26;18.20;47.70
25933;DHT22;13731;51.166;4.474;2022-08-16T02:46:52;18.30;48.50
25933;DHT22;13731;51.166;4.474;2022-08-16T02:49:18;18.30;45.90
25933;DHT22;13731;51.166;4.474;2022-08-16T02:51:44;18.30;46.20
25933;DHT22;13731;51.166;4.474;2022-08-16T02:54:12;18.30;44.50
25933;DHT22;13731;51.166;4.474;2022-08-16T02:56:41;18.20;45.20
25933;DHT22;13731;51.166;4.474;2022-08-16T02:59:07;18.30;42.80
25933;DHT22;13731;51.166;4.474;2022-08-16T03:01:34;18.30;33.30
25933;DHT22;13731;51.166;4.474;2022-08-16T03:04:05;18.30;31.50
25933;DHT22;13731;51.166;4.474;2022-08-16T03:06:32;18.30;30.60
25933;DHT22;13731;51.166;4.474;2022-08-16T03:09:04;18.30;32.10
25933;DHT22;13731;51.166;4.474;2022-08-16T03:11:34;18.20;34.10
25933;DHT22;13731;51.166;4.474;2022-08-16T03:14:01;18.20;32.90
25933;DHT22;13731;51.166;4.474;2022-08-16T03:16:29;18.20;30.60
25933;DHT22;13731;51.166;4.474;2022-08-16T03:18:55;18.20;29.70
25933;DHT22;13731;51.166;4.474;2022-08-16T03:21:21;18.20;28.10
25933;DHT22;13731;51.166;4.474;2022-08-16T03:23:48;18.20;25.60
25933;DHT22;13731;51.166;4.474;2022-08-16T03:26:14;18.20;22.00
25933;DHT22;13731;51.166;4.474;2022-08-16T03:28:40;18.20;18.90
25933;DHT22;13731;51.166;4.474;2022-08-16T03:31:06;18.20;19.80
25933;DHT22;13731;51.166;4.474;2022-08-16T03:33:35;18.20;21.00
25933;DHT22;13731;51.166;4.474;2022-08-16T03:36:02;18.10;25.50
25933;DHT22;13731;51.166;4.474;2022-08-16T03:38:34;18.10;27.30
25933;DHT22;13731;51.166;4.474;2022-08-16T03:41:03;18.00;26.40
25933;DHT22;13731;51.166;4.474;2022-08-16T03:43:30;18.00;25.80
25933;DHT22;13731;51.166;4.474;2022-08-16T03:45:57;18.00;27.20
25933;DHT22;13731;51.166;4.474;2022-08-16T03:48:29;18.00;31.10
25933;DHT22;13731;51.166;4.474;2022-08-16T03:50:59;18.00;32.00
25933;DHT22;13731;51.166;4.474;2022-08-16T03:53:25;18.00;28.10
25933;DHT22;13731;51.166;4.474;2022-08-16T03:55:51;18.00;26.10
25933;DHT22;13731;51.166;4.474;2022-08-16T03:58:17;18.00;25.20
25933;DHT22;13731;51.166;4.474;2022-08-16T04:00:44;17.90;24.30
25933;DHT22;13731;51.166;4.474;2022-08-16T04:03:15;17.90;26.40
25933;DHT22;13731;51.166;4.474;2022-08-16T04:05:44;17.90;27.20
25933;DHT22;13731;51.166;4.474;2022-08-16T04:08:17;17.90;24.80
25933;DHT22;13731;51.166;4.474;2022-08-16T04:10:46;17.90;20.80
25933;DHT22;13731;51.166;4.474;2022-08-16T04:13:13;17.90;19.90
25933;DHT22;13731;51.166;4.474;2022-08-16T04:15:39;17.90;19.50
25933;DHT22;13731;51.166;4.474;2022-08-16T04:18:12;18.00;10.20
25933;DHT22;13731;51.166;4.474;2022-08-16T04:20:38;17.90;9.00
25933;DHT22;13731;51.166;4.474;2022-08-16T04:23:05;18.00;6.40
25933;DHT22;13731;51.166;4.474;2022-08-16T04:25:35;17.90;2.40
25933;DHT22;13731;51.166;4.474;2022-08-16T04:28:02;17.90;1.00
25933;DHT22;13731;51.166;4.474;2022-08-16T04:30:29;17.90;1.00
25933;DHT22;13731;51.166;4.474;2022-08-16T04:32:55;17.90;1.00
25933;DHT22;13731;51.166;4.474;2022-08-16T04:35:23;17.90;1.00
25933;DHT22;13731;51.166;4.474;2022-08-16T04:37:51;18.00;1.00
25933;DHT22;13731;51.166;4.474;2022-08-16T04:40:21;18.00;1.00
25933;DHT22;13731;51.166;4.474;2022-08-16T04:42:49;17.90;1.00
25933;DHT22;13731;51.166;4.474;2022-08-16T04:45:16;17.90;1.00
25933;DHT22;13731;51.166;4.474;2022-08-16T04:47:43;17.90;1.00
25933;DHT22;13731;51.166;4.474;2022-08-16T04:50:23;17.80;1.00
25933;DHT22;13731;51.166;4.474;2022-08-16T04:53:07;17.90;1.00
25933;DHT22;13731;51.166;4.474;2022-08-16T04:55:36;17.90;1.00
25933;DHT22;13731;51.166;4.474;2022-08-16T04:58:02;17.90;1.00
25933;DHT22;13731;51.166;4.474;2022-08-16T05:00:30;17.90;1.00
25933;DHT22;13731;51.166;4.474;2022-08-16T05:03:05;17.90;1.00
25933;DHT22;13731;51.166;4.474;2022-08-16T05:05:37;18.00;1.00
25933;DHT22;13731;51.166;4.474;2022-08-16T05:08:04;18.00;1.00
25933;DHT22;13731;51.166;4.474;2022-08-16T05:10:31;18.00;1.00
25933;DHT22;13731;51.166;4.474;2022-08-16T05:12:59;18.10;1.00
25933;DHT22;13731;51.166;4.474;2022-08-16T05:15:25;18.10;1.00
25933;DHT22;13731;51.166;4.474;2022-08-16T05:17:52;18.20;1.00
25933;DHT22;13731;51.166;4.474;2022-08-16T05:20:18;18.30;1.00
25933;DHT22;13731;51.166;4.474;2022-08-16T05:22:45;18.30;1.00
25933;DHT22;13731;51.166;4.474;2022-08-16T05:25:17;18.40;1.00
25933;DHT22;13731;51.166;4.474;2022-08-16T05:27:49;18.40;1.00
25933;DHT22;13731;51.166;4.474;2022-08-16T05:30:18;18.50;1.00
25933;DHT22;13731;51.166;4.474;2022-08-16T05:32:44;18.50;1.00
25933;DHT22;13731;51.166;4.474;2022-08-16T05:35:12;18.50;1.00
25933;DHT22;13731;51.166;4.474;2022-08-16T05:37:58;18.50;1.00
25933;DHT22;13731;51.166;4.474;2022-08-16T05:40:25;18.60;1.00
25933;DHT22;13731;51.166;4.474;2022-08-16T05:42:51;18.70;1.00
25933;DHT22;13731;51.166;4.474;2022-08-16T05:45:18;18.80;1.00
25933;DHT22;13731;51.166;4.474;2022-08-16T05:47:45;19.00;1.00
25933;DHT22;13731;51.166;4.474;2022-08-16T05:50:12;19.20;99.90
25933;DHT22;13731;51.166;4.474;2022-08-16T05:52:38;19.30;99.90
25933;DHT22;13731;51.166;4.474;2022-08-16T05:55:06;19.50;99.90
25933;DHT22;13731;51.166;4.474;2022-08-16T05:57:34;19.90;1.00
25933;DHT22;13731;51.166;4.474;2022-08-16T06:00:00;20.00;99.90
25933;DHT22;13731;51.166;4.474;2022-08-16T06:02:27;19.90;99.90
25933;DHT22;13731;51.166;4.474;2022-08-16T06:04:57;19.70;1.00
25933;DHT22;13731;51.166;4.474;2022-08-16T06:07:24;19.60;1.00
25933;DHT22;13731;51.166;4.474;2022-08-16T06:09:54;19.50;1.00
25933;DHT22;13731;51.166;4.474;2022-08-16T06:12:24;19.40;3.40
25933;DHT22;13731;51.166;4.474;2022-08-16T06:14:50;19.40;26.80
25933;DHT22;13731;51.166;4.474;2022-08-16T06:17:16;19.40;99.90
25933;DHT22;13731;51.166;4.474;2022-08-16T06:19:42;19.50;1.00
25933;DHT22;13731;51.166;4.474;2022-08-16T06:22:12;19.70;1.00
25933;DHT22;13731;51.166;4.474;2022-08-16T06:24:40;19.70;99.90
25933;DHT22;13731;51.166;4.474;2022-08-16T06:27:05;19.90;99.90
25933;DHT22;13731;51.166;4.474;2022-08-16T06:29:33;19.90;47.10
25933;DHT22;13731;51.166;4.474;2022-08-16T06:31:59;19.90;90.80
25933;DHT22;13731;51.166;4.474;2022-08-16T06:34:27;20.00;1.00
25933;DHT22;13731;51.166;4.474;2022-08-16T06:36:53;20.20;1.00
25933;DHT22;13731;51.166;4.474;2022-08-16T06:39:21;20.20;99.90
25933;DHT22;13731;51.166;4.474;2022-08-16T06:41:50;20.30;99.90
25933;DHT22;13731;51.166;4.474;2022-08-16T06:44:39;20.50;70.40
25933;DHT22;13731;51.166;4.474;2022-08-16T06:47:11;20.50;99.90
25933;DHT22;13731;51.166;4.474;2022-08-16T06:49:38;20.80;1.00
25933;DHT22;13731;51.166;4.474;2022-08-16T06:52:03;20.90;99.90
25933;DHT22;13731;51.166;4.474;2022-08-16T06:54:35;21.00;99.90
25933;DHT22;13731;51.166;4.474;2022-08-16T06:57:01;21.10;99.90
25933;DHT22;13731;51.166;4.474;2022-08-16T06:59:27;21.10;99.90
25933;DHT22;13731;51.166;4.474;2022-08-16T07:01:56;21.20;99.90
25933;DHT22;13731;51.166;4.474;2022-08-16T07:04:25;21.20;22.20
25933;DHT22;13731;51.166;4.474;2022-08-16T07:06:52;21.40;1.00
25933;DHT22;13731;51.166;4.474;2022-08-16T07:09:19;21.50;99.90
25933;DHT22;13731;51.166;4.474;2022-08-16T07:11:46;21.40;1.00
25933;DHT22;13731;51.166;4.474;2022-08-16T07:14:13;21.40;99.90
25933;DHT22;13731;51.166;4.474;2022-08-16T07:16:50;21.40;99.90
25933;DHT22;13731;51.166;4.474;2022-08-16T07:19:15;21.40;99.90
25933;DHT22;13731;51.166;4.474;2022-08-16T07:21:42;21.40;99.90
25933;DHT22;13731;51.166;4.474;2022-08-16T07:24:09;21.50;92.80
25933;DHT22;13731;51.166;4.474;2022-08-16T07:26:39;21.70;99.90
25933;DHT22;13731;51.166;4.474;2022-08-16T07:29:05;21.90;99.90
25933;DHT22;13731;51.166;4.474;2022-08-16T07:31:32;22.10;1.00
25933;DHT22;13731;51.166;4.474;2022-08-16T07:33:58;22.20;1.00
25933;DHT22;13731;51.166;4.474;2022-08-16T07:36:27;22.20;1.00
25933;DHT22;13731;51.166;4.474;2022-08-16T07:38:53;22.30;99.90
25933;DHT22;13731;51.166;4.474;2022-08-16T07:41:20;22.40;1.00
25933;DHT22;13731;51.166;4.474;2022-08-16T07:43:51;22.70;1.00
25933;DHT22;13731;51.166;4.474;2022-08-16T07:46:18;23.00;99.90
25933;DHT22;13731;51.166;4.474;2022-08-16T07:48:45;23.10;1.00
25933;DHT22;13731;51.166;4.474;2022-08-16T07:51:10;23.10;1.00
25933;DHT22;13731;51.166;4.474;2022-08-16T07:53:39;23.20;1.00
25933;DHT22;13731;51.166;4.474;2022-08-16T07:56:12;23.30;1.00
25933;DHT22;13731;51.166;4.474;2022-08-16T07:58:42;23.60;99.90
25933;DHT22;13731;51.166;4.474;2022-08-16T08:01:11;23.70;99.90
25933;DHT22;13731;51.166;4.474;2022-08-16T08:03:42;24.20;23.20
25933;DHT22;13731;51.166;4.474;2022-08-16T08:06:10;24.10;98.20
25933;DHT22;13731;51.166;4.474;2022-08-16T08:08:36;24.20;1.00
25933;DHT22;13731;51.166;4.474;2022-08-16T08:11:04;23.90;1.00
25933;DHT22;13731;51.166;4.474;2022-08-16T08:13:29;24.00;1.00
25933;DHT22;13731;51.166;4.474;2022-08-16T08:15:56;23.90;1.00
25933;DHT22;13731;51.166;4.474;2022-08-16T08:18:22;24.00;99.90
25933;DHT22;13731;51.166;4.474;2022-08-16T08:20:48;24.00;1.00
25933;DHT22;13731;51.166;4.474;2022-08-16T08:23:14;24.10;1.00
25933;DHT22;13731;51.166;4.474;2022-08-16T08:25:44;24.20;1.00
25933;DHT22;13731;51.166;4.474;2022-08-16T08:28:11;24.20;4.90
25933;DHT22;13731;51.166;4.474;2022-08-16T08:30:41;24.50;1.00
25933;DHT22;13731;51.166;4.474;2022-08-16T08:33:07;24.80;1.00
25933;DHT22;13731;51.166;4.474;2022-08-16T08:35:38;24.70;1.00
25933;DHT22;13731;51.166;4.474;2022-08-16T08:38:06;24.60;1.00
25933;DHT22;13731;51.166;4.474;2022-08-16T08:40:37;24.90;1.00
25933;DHT22;13731;51.166;4.474;2022-08-16T08:43:04;25.10;1.00
25933;DHT22;13731;51.166;4.474;2022-08-16T08:45:32;25.40;99.90
25933;DHT22;13731;51.166;4.474;2022-08-16T08:47:58;25.70;99.90
25933;DHT22;13731;51.166;4.474;2022-08-16T08:50:29;25.70;99.90
25933;DHT22;13731;51.166;4.474;2022-08-16T08:52:55;25.40;99.90
25933;DHT22;13731;51.166;4.474;2022-08-16T08:55:21;25.60;99.90
25933;DHT22;13731;51.166;4.474;2022-08-16T08:57:49;25.70;99.90
25933;DHT22;13731;51.166;4.474;2022-08-16T09:00:41;26.10;99.90
25933;DHT22;13731;51.166;4.474;2022-08-16T09:03:07;26.20;99.90
25933;DHT22;13731;51.166;4.474;2022-08-16T09:05:36;26.60;99.90
25933;DHT22;13731;51.166;4.474;2022-08-16T09:08:08;26.60;99.90
25933;DHT22;13731;51.166;4.474;2022-08-16T09:10:51;26.40;99.90
25933;DHT22;13731;51.166;4.474;2022-08-16T09:13:18;26.00;99.90
25933;DHT22;13731;51.166;4.474;2022-08-16T09:15:47;25.80;99.90
25933;DHT22;13731;51.166;4.474;2022-08-16T09:18:15;25.90;99.90
25933;DHT22;13731;51.166;4.474;2022-08-16T09:20:44;26.10;99.90
25933;DHT22;13731;51.166;4.474;2022-08-16T09:23:10;26.00;99.90
25933;DHT22;13731;51.166;4.474;2022-08-16T09:25:40;26.30;99.90
25933;DHT22;13731;51.166;4.474;2022-08-16T09:28:08;26.60;99.90
25933;DHT22;13731;51.166;4.474;2022-08-16T09:30:35;27.10;50.30
25933;DHT22;13731;51.166;4.474;2022-08-16T09:33:04;27.40;5.30
25933;DHT22;13731;51.166;4.474;2022-08-16T09:35:30;26.90;1.00
25933;DHT22;13731;51.166;4.474;2022-08-16T09:37:55;26.60;1.00
25933;DHT22;13731;51.166;4.474;2022-08-16T09:40:22;26.90;1.00
25933;DHT22;13731;51.166;4.474;2022-08-16T09:42:48;27.30;1.00
25933;DHT22;13731;51.166;4.474;2022-08-16T09:45:14;27.70;1.00
25933;DHT22;13731;51.166;4.474;2022-08-16T09:47:41;28.20;1.00
25933;DHT22;13731;51.166;4.474;2022-08-16T09:50:09;28.20;1.00
25933;DHT22;13731;51.166;4.474;2022-08-16T09:52:36;27.80;1.00
25933;DHT22;13731;51.166;4.474;2022-08-16T09:55:07;27.80;1.00
25933;DHT22;13731;51.166;4.474;2022-08-16T09:57:35;27.90;1.00
25933;DHT22;13731;51.166;4.474;2022-08-16T10:00:02;28.00;1.00
25933;DHT22;13731;51.166;4.474;2022-08-16T10:02:37;28.20;1.00
25933;DHT22;13731;51.166;4.474;2022-08-16T10:05:06;28.10;1.00
25933;DHT22;13731;51.166;4.474;2022-08-16T10:07:32;28.00;1.00
25933;DHT22;13731;51.166;4.474;2022-08-16T10:09:58;27.40;1.00
25933;DHT22;13731;51.166;4.474;2022-08-16T10:12:25;27.60;1.00
25933;DHT22;13731;51.166;4.474;2022-08-16T10:15:16;28.60;1.00
25933;DHT22;13731;51.166;4.474;2022-08-16T10:17:48;30.10;1.00
25933;DHT22;13731;51.166;4.474;2022-08-16T10:20:15;31.50;1.00
25933;DHT22;13731;51.166;4.474;2022-08-16T10:22:41;32.10;1.00
25933;DHT22;13731;51.166;4.474;2022-08-16T10:25:07;31.50;1.00
25933;DHT22;13731;51.166;4.474;2022-08-16T10:27:34;30.50;1.00
25933;DHT22;13731;51.166;4.474;2022-08-16T10:30:04;30.90;1.00
25933;DHT22;13731;51.166;4.474;2022-08-16T10:32:31;31.10;1.00
25933;DHT22;13731;51.166;4.474;2022-08-16T10:34:58;31.40;1.00
25933;DHT22;13731;51.166;4.474;2022-08-16T10:37:24;31.80;1.00
25933;DHT22;13731;51.166;4.474;2022-08-16T10:39:49;31.60;1.00
25933;DHT22;13731;51.166;4.474;2022-08-16T10:42:15;32.10;1.00
25933;DHT22;13731;51.166;4.474;2022-08-16T10:44:42;32.20;1.00
25933;DHT22;13731;51.166;4.474;2022-08-16T10:47:09;32.30;1.00
25933;DHT22;13731;51.166;4.474;2022-08-16T10:49:35;32.70;1.00
25933;DHT22;13731;51.166;4.474;2022-08-16T10:52:02;31.60;1.00
25933;DHT22;13731;51.166;4.474;2022-08-16T10:54:27;31.50;1.00
25933;DHT22;13731;51.166;4.474;2022-08-16T10:56:53;31.20;1.00
25933;DHT22;13731;51.166;4.474;2022-08-16T10:59:21;30.90;1.00
25933;DHT22;13731;51.166;4.474;2022-08-16T11:01:47;31.10;1.00
25933;DHT22;13731;51.166;4.474;2022-08-16T11:04:13;30.50;1.00
25933;DHT22;13731;51.166;4.474;2022-08-16T11:06:40;30.40;1.00
25933;DHT22;13731;51.166;4.474;2022-08-16T11:09:05;30.80;1.00
25933;DHT22;13731;51.166;4.474;2022-08-16T11:11:31;30.80;1.00
25933;DHT22;13731;51.166;4.474;2022-08-16T11:13:57;30.80;1.00
25933;DHT22;13731;51.166;4.474;2022-08-16T11:16:23;30.70;1.00
25933;DHT22;13731;51.166;4.474;2022-08-16T11:18:49;31.30;1.00
25933;DHT22;13731;51.166;4.474;2022-08-16T11:21:15;32.10;1.00
25933;DHT22;13731;51.166;4.474;2022-08-16T11:23:41;32.70;1.00
25933;DHT22;13731;51.166;4.474;2022-08-16T11:26:07;33.70;1.00
25933;DHT22;13731;51.166;4.474;2022-08-16T11:28:34;34.10;1.00
25933;DHT22;13731;51.166;4.474;2022-08-16T11:31:00;33.30;1.00
25933;DHT22;13731;51.166;4.474;2022-08-16T11:33:26;32.70;1.00
25933;DHT22;13731;51.166;4.474;2022-08-16T11:35:52;31.30;1.00
25933;DHT22;13731;51.166;4.474;2022-08-16T11:38:21;30.30;1.00
25933;DHT22;13731;51.166;4.474;2022-08-16T11:40:53;29.50;1.00
25933;DHT22;13731;51.166;4.474;2022-08-16T11:43:27;29.00;1.00
25933;DHT22;13731;51.166;4.474;2022-08-16T11:45:54;28.70;1.00
25933;DHT22;13731;51.166;4.474;2022-08-16T11:48:26;28.50;1.00
25933;DHT22;13731;51.166;4.474;2022-08-16T11:50:52;28.50;1.00
25933;DHT22;13731;51.166;4.474;2022-08-16T11:53:19;29.40;1.00
25933;DHT22;13731;51.166;4.474;2022-08-16T11:55:46;29.60;1.00
25933;DHT22;13731;51.166;4.474;2022-08-16T11:58:13;29.80;1.00
25933;DHT22;13731;51.166;4.474;2022-08-16T12:00:42;30.00;1.00
25933;DHT22;13731;51.166;4.474;2022-08-16T12:03:08;30.00;1.00
25933;DHT22;13731;51.166;4.474;2022-08-16T12:05:35;30.80;1.00
25933;DHT22;13731;51.166;4.474;2022-08-16T12:08:05;31.80;1.00
25933;DHT22;13731;51.166;4.474;2022-08-16T12:10:32;32.20;1.00
25933;DHT22;13731;51.166;4.474;2022-08-16T12:12:58;33.00;1.00
25933;DHT22;13731;51.166;4.474;2022-08-16T12:15:25;33.40;1.00
25933;DHT22;13731;51.166;4.474;2022-08-16T12:17:54;32.70;1.00
25933;DHT22;13731;51.166;4.474;2022-08-16T12:20:25;32.70;1.00
25933;DHT22;13731;51.166;4.474;2022-08-16T12:22:52;33.60;1.00
25933;DHT22;13731;51.166;4.474;2022-08-16T12:25:19;35.40;1.00
25933;DHT22;13731;51.166;4.474;2022-08-16T12:27:46;37.10;1.00
25933;DHT22;13731;51.166;4.474;2022-08-16T12:30:15;35.50;1.00
25933;DHT22;13731;51.166;4.474;2022-08-16T12:32:42;35.50;1.00
25933;DHT22;13731;51.166;4.474;2022-08-16T12:35:12;36.20;1.00
25933;DHT22;13731;51.166;4.474;2022-08-16T12:37:40;36.70;1.00
25933;DHT22;13731;51.166;4.474;2022-08-16T12:40:08;35.70;1.00
25933;DHT22;13731;51.166;4.474;2022-08-16T12:42:34;34.00;1.00
25933;DHT22;13731;51.166;4.474;2022-08-16T12:45:02;34.70;1.00
25933;DHT22;13731;51.166;4.474;2022-08-16T12:47:28;34.00;1.00
25933;DHT22;13731;51.166;4.474;2022-08-16T12:50:12;35.00;1.00
25933;DHT22;13731;51.166;4.474;2022-08-16T12:52:38;35.70;1.00
25933;DHT22;13731;51.166;4.474;2022-08-16T12:55:04;35.90;1.00
25933;DHT22;13731;51.166;4.474;2022-08-16T12:57:31;36.20;1.00
25933;DHT22;13731;51.166;4.474;2022-08-16T12:59:58;36.70;1.00
25933;DHT22;13731;51.166;4.474;2022-08-16T13:02:25;35.30;1.00
25933;DHT22;13731;51.166;4.474;2022-08-16T13:04:51;34.90;1.00
25933;DHT22;13731;51.166;4.474;2022-08-16T13:07:17;34.90;1.00
25933;DHT22;13731;51.166;4.474;2022-08-16T13:09:43;35.20;1.00
25933;DHT22;13731;51.166;4.474;2022-08-16T13:12:23;35.00;1.00
25933;DHT22;13731;51.166;4.474;2022-08-16T13:14:52;35.00;1.00
25933;DHT22;13731;51.166;4.474;2022-08-16T13:17:22;37.00;1.00
25933;DHT22;13731;51.166;4.474;2022-08-16T13:19:50;37.50;1.00
25933;DHT22;13731;51.166;4.474;2022-08-16T13:22:17;37.10;1.00
25933;DHT22;13731;51.166;4.474;2022-08-16T13:24:45;37.00;1.00
25933;DHT22;13731;51.166;4.474;2022-08-16T13:27:11;35.80;1.00
25933;DHT22;13731;51.166;4.474;2022-08-16T13:29:36;35.90;1.00
25933;DHT22;13731;51.166;4.474;2022-08-16T13:32:03;36.20;1.00
25933;DHT22;13731;51.166;4.474;2022-08-16T13:34:30;36.40;1.00
25933;DHT22;13731;51.166;4.474;2022-08-16T13:36:55;36.40;1.00
25933;DHT22;13731;51.166;4.474;2022-08-16T13:39:24;36.70;1.00
25933;DHT22;13731;51.166;4.474;2022-08-16T13:41:50;36.50;1.00
25933;DHT22;13731;51.166;4.474;2022-08-16T13:44:16;37.10;1.00
25933;DHT22;13731;51.166;4.474;2022-08-16T13:46:44;35.80;1.00
25933;DHT22;13731;51.166;4.474;2022-08-16T13:49:12;34.50;1.00
25933;DHT22;13731;51.166;4.474;2022-08-16T13:51:39;33.30;1.00
25933;DHT22;13731;51.166;4.474;2022-08-16T13:54:05;33.30;1.00
25933;DHT22;13731;51.166;4.474;2022-08-16T13:56:34;33.70;1.00
25933;DHT22;13731;51.166;4.474;2022-08-16T13:59:00;34.10;1.00
25933;DHT22;13731;51.166;4.474;2022-08-16T14:01:25;34.30;1.00
25933;DHT22;13731;51.166;4.474;2022-08-16T14:03:52;34.50;1.00
25933;DHT22;13731;51.166;4.474;2022-08-16T14:06:18;34.20;1.00
25933;DHT22;13731;51.166;4.474;2022-08-16T14:08:45;33.90;1.00
25933;DHT22;13731;51.166;4.474;2022-08-16T14:11:12;34.30;1.00
25933;DHT22;13731;51.166;4.474;2022-08-16T14:13:40;34.80;1.00
25933;DHT22;13731;51.166;4.474;2022-08-16T14:16:07;34.10;1.00
25933;DHT22;13731;51.166;4.474;2022-08-16T14:18:33;33.50;1.00
25933;DHT22;13731;51.166;4.474;2022-08-16T14:20:58;33.50;1.00
25933;DHT22;13731;51.166;4.474;2022-08-16T14:23:25;32.40;1.00
25933;DHT22;13731;51.166;4.474;2022-08-16T14:25:51;31.40;1.00
25933;DHT22;13731;51.166;4.474;2022-08-16T14:28:17;31.20;1.00
25933;DHT22;13731;51.166;4.474;2022-08-16T14:30:43;31.00;1.00
25933;DHT22;13731;51.166;4.474;2022-08-16T14:33:10;31.10;1.00
25933;DHT22;13731;51.166;4.474;2022-08-16T14:35:36;31.20;1.00
25933;DHT22;13731;51.166;4.474;2022-08-16T14:38:03;32.00;1.00
25933;DHT22;13731;51.166;4.474;2022-08-16T14:40:29;31.90;1.00
25933;DHT22;13731;51.166;4.474;2022-08-16T14:42:56;32.70;1.00
25933;DHT22;13731;51.166;4.474;2022-08-16T14:45:23;33.90;1.00
25933;DHT22;13731;51.166;4.474;2022-08-16T14:47:49;34.40;1.00
25933;DHT22;13731;51.166;4.474;2022-08-16T14:50:18;35.50;1.00
25933;DHT22;13731;51.166;4.474;2022-08-16T14:52:48;36.80;1.00
25933;DHT22;13731;51.166;4.474;2022-08-16T14:55:14;37.20;1.00
25933;DHT22;13731;51.166;4.474;2022-08-16T14:57:40;36.70;1.00
25933;DHT22;13731;51.166;4.474;2022-08-16T15:00:08;37.70;1.00
25933;DHT22;13731;51.166;4.474;2022-08-16T15:02:36;38.20;1.00
25933;DHT22;13731;51.166;4.474;2022-08-16T15:05:04;38.90;1.00
25933;DHT22;13731;51.166;4.474;2022-08-16T15:07:30;39.30;1.00
25933;DHT22;13731;51.166;4.474;2022-08-16T15:09:56;38.70;1.00
25933;DHT22;13731;51.166;4.474;2022-08-16T15:12:24;37.90;1.00
25933;DHT22;13731;51.166;4.474;2022-08-16T15:14:52;37.50;1.00
25933;DHT22;13731;51.166;4.474;2022-08-16T15:17:21;37.80;1.00
25933;DHT22;13731;51.166;4.474;2022-08-16T15:19:50;37.50;1.00
25933;DHT22;13731;51.166;4.474;2022-08-16T15:22:31;38.20;1.00
25933;DHT22;13731;51.166;4.474;2022-08-16T15:25:00;38.20;1.00
25933;DHT22;13731;51.166;4.474;2022-08-16T15:27:29;38.40;1.00
25933;DHT22;13731;51.166;4.474;2022-08-16T15:29:55;38.10;1.00
25933;DHT22;13731;51.166;4.474;2022-08-16T15:32:22;36.50;1.00
25933;DHT22;13731;51.166;4.474;2022-08-16T15:34:50;36.00;1.00
25933;DHT22;13731;51.166;4.474;2022-08-16T15:37:17;35.90;1.00
25933;DHT22;13731;51.166;4.474;2022-08-16T15:39:43;36.20;1.00
25933;DHT22;13731;51.166;4.474;2022-08-16T15:42:11;36.60;1.00
25933;DHT22;13731;51.166;4.474;2022-08-16T15:44:38;37.20;1.00